Marshall Junction, Missouri
Current Conditions -  °F | °C
As of 11:53 AM on Saturday 25 Oct 2014 (Local Time) from KDMO Reporting Station
Clear Clear  
Wind Chill: 70°   Ceiling: Unl
Heat Index: 70°   Visibility: 7mi
Dew Point: 63°   Wind: 3mph
Humidity: 78%   Direction: NA
Pressure: 30.1"   Gusts: NA
Location:  39.0733°N, 93.1988°W
Report Text: KDMO 251653Z AUTO VRB03KT 7SM CLR 21/17 A3010 RMK AO2 SLP188 T02110172
Loading
Personal Weather Stations






























Interactive Weather Map
Tropical Storm Tracking
New forecast layout! Learn more

10-Day Weather Forecast

Advertisements
Track Severe Weather on mobile